createdAt,value
2018-06-20T00:02:15.720Z,19.45
2018-06-20T00:04:50.382Z,19.41
2018-06-20T00:07:25.112Z,19.44
2018-06-20T00:09:59.725Z,19.44
2018-06-20T00:12:34.543Z,19.43
2018-06-20T00:15:09.172Z,19.50
2018-06-20T00:17:43.788Z,19.50
2018-06-20T00:20:18.352Z,19.50
2018-06-20T00:22:52.827Z,19.47
2018-06-20T00:25:27.326Z,19.41
2018-06-20T00:28:01.611Z,19.39
2018-06-20T00:30:36.037Z,19.45
2018-06-20T00:33:10.528Z,19.47
2018-06-20T00:35:45.018Z,19.44
2018-06-20T00:38:19.665Z,19.47
2018-06-20T00:40:54.208Z,19.47
2018-06-20T00:43:30.443Z,19.40
2018-06-20T00:46:05.905Z,19.42
2018-06-20T00:48:40.821Z,19.35
2018-06-20T00:51:15.217Z,19.35
2018-06-20T00:53:49.616Z,19.37
2018-06-20T00:56:26.172Z,19.41
2018-06-20T00:59:00.669Z,19.41
2018-06-20T01:01:35.272Z,19.41
2018-06-20T01:04:09.928Z,19.43
2018-06-20T01:06:44.477Z,19.41
2018-06-20T01:09:19.127Z,19.44
2018-06-20T01:11:57.338Z,19.44
2018-06-20T01:14:31.765Z,19.43
2018-06-20T01:17:06.660Z,19.41
2018-06-20T01:19:41.333Z,19.39
2018-06-20T01:22:15.945Z,19.37
2018-06-20T01:24:50.684Z,19.35
2018-06-20T01:27:25.361Z,19.37
2018-06-20T01:29:59.849Z,19.38
2018-06-20T01:32:34.528Z,19.34
2018-06-20T01:35:09.008Z,19.16
2018-06-20T01:37:43.615Z,19.28
2018-06-20T01:40:18.144Z,19.40
2018-06-20T01:42:52.869Z,19.35
2018-06-20T01:45:27.508Z,19.47
2018-06-20T01:48:02.284Z,19.43
2018-06-20T01:50:37.016Z,19.45
2018-06-20T01:53:11.570Z,19.35
2018-06-20T01:55:46.072Z,19.28
2018-06-20T01:58:21.208Z,19.12
2018-06-20T02:00:55.639Z,19.16
2018-06-20T02:03:30.304Z,19.29
2018-06-20T02:06:04.896Z,19.34
2018-06-20T02:08:39.553Z,19.37
2018-06-20T02:11:14.037Z,19.39
2018-06-20T02:13:48.348Z,19.29
2018-06-20T02:16:22.948Z,19.32
2018-06-20T02:18:57.626Z,19.35
2018-06-20T02:21:32.204Z,19.32
2018-06-20T02:24:06.747Z,19.32
2018-06-20T02:26:41.237Z,19.35
2018-06-20T02:29:15.696Z,19.31
2018-06-20T02:31:50.220Z,19.18
2018-06-20T02:34:24.926Z,19.27
2018-06-20T02:36:59.379Z,19.29
2018-06-20T02:39:33.957Z,19.33
2018-06-20T02:42:08.616Z,19.30
2018-06-20T02:44:43.433Z,19.30
2018-06-20T02:47:18.010Z,19.33
2018-06-20T02:49:52.459Z,19.17
2018-06-20T02:52:27.009Z,19.10
2018-06-20T02:55:01.765Z,19.22
2018-06-20T02:57:36.206Z,19.24
2018-06-20T03:00:11.297Z,19.11
2018-06-20T03:02:46.252Z,19.10
2018-06-20T03:05:20.668Z,19.06
2018-06-20T03:07:54.955Z,19.10
2018-06-20T03:10:29.364Z,19.17
2018-06-20T03:13:03.753Z,19.27
2018-06-20T03:15:38.071Z,19.12
2018-06-20T03:18:12.300Z,19.21
2018-06-20T03:20:46.692Z,19.26
2018-06-20T03:23:20.996Z,19.19
2018-06-20T03:25:55.247Z,19.08
2018-06-20T03:28:29.734Z,19.18
2018-06-20T03:31:04.092Z,19.28
2018-06-20T03:33:38.515Z,19.26
2018-06-20T03:36:13.024Z,19.27
2018-06-20T03:38:47.363Z,19.24
2018-06-20T03:41:21.775Z,19.19
2018-06-20T03:43:56.356Z,19.23
2018-06-20T03:46:30.826Z,19.16
2018-06-20T03:49:05.283Z,19.21
2018-06-20T03:51:39.587Z,19.28
2018-06-20T03:54:13.991Z,19.28
2018-06-20T03:57:02.140Z,19.34
2018-06-20T03:59:46.856Z,19.38
2018-06-20T04:02:26.866Z,19.18
2018-06-20T04:05:20.173Z,19.27
2018-06-20T04:07:54.601Z,19.31
2018-06-20T04:10:29.319Z,19.39
2018-06-20T04:13:13.663Z,19.41
2018-06-20T04:21:46.191Z,19.22
2018-06-20T04:24:20.567Z,19.13
2018-06-20T04:26:54.823Z,19.27
2018-06-20T04:29:29.095Z,19.37
2018-06-20T04:32:03.483Z,19.49
2018-06-20T04:34:37.747Z,19.44
2018-06-20T04:37:12.064Z,19.39
2018-06-20T04:39:47.779Z,19.57
2018-06-20T04:42:27.012Z,19.54
2018-06-20T04:45:12.660Z,19.29
2018-06-20T04:47:47.344Z,19.51
2018-06-20T04:50:21.989Z,19.57
2018-06-20T04:52:56.588Z,19.36
2018-06-20T04:55:31.150Z,19.53
2018-06-20T04:58:05.591Z,19.62
2018-06-20T05:00:40.165Z,19.72
2018-06-20T05:03:15.057Z,19.80
2018-06-20T05:05:49.676Z,19.45
2018-06-20T05:08:24.082Z,19.56
2018-06-20T05:10:58.545Z,19.65
2018-06-20T05:13:33.103Z,19.76
2018-06-20T05:16:07.690Z,19.70
2018-06-20T05:18:42.252Z,19.81
2018-06-20T05:21:16.842Z,19.79
2018-06-20T05:23:51.216Z,19.68
2018-06-20T05:26:25.667Z,19.85
2018-06-20T05:29:00.226Z,19.63
2018-06-20T05:31:34.925Z,19.62
2018-06-20T05:34:09.479Z,19.78
2018-06-20T05:36:44.160Z,19.87
2018-06-20T05:39:18.704Z,19.79
2018-06-20T05:41:53.263Z,19.90
2018-06-20T05:44:27.640Z,19.61
2018-06-20T05:47:02.009Z,19.97
2018-06-20T05:49:36.598Z,20.16
2018-06-20T05:52:11.084Z,20.16
2018-06-20T05:54:45.588Z,20.49
2018-06-20T05:57:20.043Z,20.56
2018-06-20T05:59:54.635Z,20.42
2018-06-20T06:02:29.097Z,20.00
2018-06-20T06:05:03.709Z,20.13
2018-06-20T06:07:38.182Z,20.35
2018-06-20T06:10:15.753Z,20.60
2018-06-20T06:12:50.216Z,20.60
2018-06-20T06:15:24.808Z,20.61
2018-06-20T06:17:59.404Z,20.56
2018-06-20T06:20:34.077Z,20.73
2018-06-20T06:23:08.645Z,20.75
2018-06-20T06:25:43.127Z,20.75
2018-06-20T06:28:17.592Z,21.06
2018-06-20T06:30:52.101Z,21.04
2018-06-20T06:33:26.559Z,21.61
2018-06-20T06:36:01.072Z,21.91
2018-06-20T06:38:35.585Z,21.61
2018-06-20T06:41:10.081Z,21.96
2018-06-20T06:43:44.684Z,21.92
2018-06-20T06:46:19.149Z,22.36
2018-06-20T06:49:01.863Z,22.62
2018-06-20T06:51:41.554Z,22.75
2018-06-20T06:54:16.016Z,22.31
2018-06-20T06:56:50.475Z,21.81
2018-06-20T06:59:24.913Z,21.42
2018-06-20T07:01:59.548Z,21.70
2018-06-20T07:04:34.100Z,22.29
2018-06-20T07:07:08.747Z,22.00
2018-06-20T07:09:43.245Z,22.08
2018-06-20T07:12:17.803Z,21.90
2018-06-20T07:14:52.336Z,22.26
2018-06-20T07:17:26.981Z,22.23
2018-06-20T07:20:01.550Z,22.53
2018-06-20T07:22:36.121Z,23.90
2018-06-20T07:25:10.680Z,23.20
2018-06-20T07:27:45.140Z,23.46
2018-06-20T07:30:19.564Z,24.65
2018-06-20T07:32:53.921Z,23.75
2018-06-20T07:35:28.337Z,24.28
2018-06-20T07:38:02.989Z,26.51
2018-06-20T07:40:37.653Z,28.63
2018-06-20T07:43:12.258Z,28.89
2018-06-20T07:45:46.664Z,28.73
2018-06-20T07:48:21.268Z,27.14
2018-06-20T07:50:55.941Z,28.04
2018-06-20T07:53:30.368Z,28.06
2018-06-20T07:56:04.798Z,27.44
2018-06-20T07:58:44.568Z,29.36
2018-06-20T08:01:35.777Z,30.01
2018-06-20T08:04:15.620Z,27.32
2018-06-20T08:06:55.487Z,27.17
2018-06-20T08:09:49.580Z,25.78
2018-06-20T08:15:28.697Z,27.55
2018-06-20T08:18:08.493Z,29.71
2018-06-20T08:21:07.681Z,29.09
2018-06-20T08:23:42.199Z,29.60
2018-06-20T08:26:16.656Z,28.08
2018-06-20T08:28:51.073Z,29.62
2018-06-20T08:31:25.668Z,30.43
2018-06-20T08:34:00.240Z,29.05
2018-06-20T08:36:34.613Z,30.24
2018-06-20T08:39:09.793Z,31.05
2018-06-20T08:41:44.242Z,31.20
2018-06-20T08:44:18.623Z,28.91
2018-06-20T08:46:53.116Z,27.30
2018-06-20T08:49:27.488Z,26.28
2018-06-20T08:52:01.858Z,25.87
2018-06-20T08:54:36.849Z,28.53
2018-06-20T08:57:11.360Z,29.09
2018-06-20T08:59:45.929Z,28.38
2018-06-20T09:02:20.812Z,25.84
2018-06-20T09:05:13.676Z,26.89
2018-06-20T09:07:53.585Z,25.86
2018-06-20T09:10:33.376Z,26.51
2018-06-20T09:13:13.236Z,30.21
2018-06-20T09:15:53.129Z,28.40
2018-06-20T09:18:32.991Z,31.62
2018-06-20T09:21:07.619Z,30.20
2018-06-20T09:23:41.992Z,28.58
2018-06-20T09:26:16.425Z,27.98
2018-06-20T09:28:50.939Z,27.00
2018-06-20T09:31:25.344Z,26.76
2018-06-20T09:33:59.812Z,27.30
2018-06-20T09:36:34.293Z,26.59
2018-06-20T09:39:08.641Z,28.40
2018-06-20T09:41:43.028Z,28.74
2018-06-20T09:44:17.564Z,29.20
2018-06-20T09:46:51.963Z,28.58
2018-06-20T09:49:26.277Z,27.45
2018-06-20T09:52:00.721Z,28.86
2018-06-20T09:54:35.104Z,28.23
2018-06-20T09:57:09.796Z,29.17
2018-06-20T09:59:49.505Z,29.33
2018-06-20T10:02:29.341Z,31.21
2018-06-20T10:05:09.287Z,32.99
2018-06-20T10:07:49.148Z,31.95
2018-06-20T10:10:29.278Z,32.36
2018-06-20T10:13:08.898Z,34.96
2018-06-20T10:15:43.306Z,32.59
2018-06-20T10:18:17.691Z,32.06
2018-06-20T10:20:52.027Z,31.80
2018-06-20T10:23:26.403Z,31.93
2018-06-20T10:26:00.791Z,30.46
2018-06-20T10:28:35.187Z,30.92
2018-06-20T10:31:09.671Z,31.08
2018-06-20T10:33:44.079Z,31.40
2018-06-20T10:36:18.419Z,30.69
2018-06-20T10:38:52.775Z,28.69
2018-06-20T10:47:36.508Z,27.08
2018-06-20T10:53:11.024Z,30.84
2018-06-20T10:55:47.320Z,31.53
2018-06-20T11:01:39.648Z,30.13
2018-06-20T11:04:38.563Z,29.66
2018-06-20T11:07:18.375Z,30.19
2018-06-20T11:09:58.120Z,28.52
2018-06-20T11:12:37.989Z,30.01
2018-06-20T11:15:12.603Z,29.65
2018-06-20T11:17:46.929Z,29.57
2018-06-20T11:20:26.723Z,32.74
2018-06-20T11:23:01.196Z,33.99
2018-06-20T11:25:35.575Z,33.10
2018-06-20T11:28:13.240Z,32.12
2018-06-20T11:30:47.851Z,33.13
2018-06-20T11:33:29.988Z,32.31
2018-06-20T11:36:14.427Z,33.26
2018-06-20T11:38:48.843Z,33.06
2018-06-20T11:41:23.395Z,33.50
2018-06-20T11:43:57.767Z,33.91
2018-06-20T11:46:37.598Z,32.91
2018-06-20T11:49:12.173Z,33.41
2018-06-20T11:51:46.590Z,34.24
2018-06-20T11:54:20.948Z,34.08
2018-06-20T11:56:55.391Z,31.74
2018-06-20T11:59:35.204Z,31.24
2018-06-20T12:02:15.035Z,31.43
2018-06-20T12:04:54.872Z,30.83
2018-06-20T12:07:34.836Z,30.61
2018-06-20T12:10:14.672Z,29.03
2018-06-20T12:12:54.192Z,28.75
2018-06-20T12:15:34.074Z,28.19
2018-06-20T12:18:13.793Z,28.45
2018-06-20T12:20:53.568Z,28.03
2018-06-20T12:23:33.327Z,28.58
2018-06-20T12:26:13.024Z,27.99
2018-06-20T12:28:52.883Z,27.36
2018-06-20T12:31:32.534Z,27.53
2018-06-20T12:34:12.491Z,28.02
2018-06-20T12:36:52.224Z,28.07
2018-06-20T12:39:25.759Z,27.81
2018-06-20T12:42:05.539Z,28.19
2018-06-20T12:44:45.299Z,27.74
2018-06-20T12:47:24.398Z,27.46
2018-06-20T12:50:01.179Z,27.51
2018-06-20T12:52:35.593Z,28.20
2018-06-20T12:55:10.089Z,28.55
2018-06-20T12:57:44.444Z,28.49
2018-06-20T13:00:18.815Z,28.62
2018-06-20T13:02:53.148Z,28.26
2018-06-20T13:05:27.604Z,28.66
2018-06-20T13:08:02.053Z,28.01
2018-06-20T13:10:36.436Z,27.75
2018-06-20T13:13:10.940Z,28.29
2018-06-20T13:15:45.316Z,28.58
2018-06-20T13:18:19.688Z,28.49
2018-06-20T13:20:54.120Z,28.56
2018-06-20T13:23:28.620Z,28.94
2018-06-20T13:26:03.068Z,28.50
2018-06-20T13:28:37.649Z,28.25
2018-06-20T13:31:17.432Z,28.61
2018-06-20T13:33:57.311Z,28.56
2018-06-20T13:36:37.084Z,29.13
2018-06-20T13:39:16.884Z,29.30
2018-06-20T13:41:56.712Z,29.34
2018-06-20T13:44:31.112Z,29.99
2018-06-20T13:47:16.919Z,29.94
2018-06-20T13:52:51.287Z,29.34
2018-06-20T13:55:25.511Z,30.24
2018-06-20T13:57:59.889Z,30.25
2018-06-20T14:00:34.308Z,29.97
2018-06-20T14:03:08.728Z,30.19
2018-06-20T14:05:43.120Z,30.32
2018-06-20T14:08:17.547Z,30.69
2018-06-20T14:10:51.959Z,29.37
2018-06-20T14:13:26.302Z,30.26
2018-06-20T14:16:00.567Z,29.87
2018-06-20T14:18:34.759Z,29.74
2018-06-20T14:21:14.569Z,29.28
2018-06-20T14:23:49.096Z,28.69
2018-06-20T14:26:23.599Z,28.97
2018-06-20T14:28:57.891Z,30.01
2018-06-20T14:31:37.653Z,31.06
2018-06-20T14:34:17.575Z,30.70
2018-06-20T14:36:57.315Z,30.61
2018-06-20T14:39:37.264Z,31.53
2018-06-20T14:42:17.102Z,30.20
2018-06-20T14:44:55.611Z,31.15
2018-06-20T14:47:30.105Z,31.16
2018-06-20T14:50:04.664Z,32.15
2018-06-20T14:52:39.067Z,32.62
2018-06-20T14:55:13.279Z,33.65
2018-06-20T14:57:47.679Z,33.02
2018-06-20T15:00:22.052Z,30.77
2018-06-20T15:02:56.448Z,31.81
2018-06-20T15:05:44.724Z,31.24
2018-06-20T15:08:19.104Z,31.57
2018-06-20T15:10:53.560Z,32.31
2018-06-20T15:13:28.007Z,32.20
2018-06-20T15:16:07.927Z,31.69
2018-06-20T15:18:42.160Z,32.00
2018-06-20T15:21:16.395Z,30.68
2018-06-20T15:23:50.591Z,30.53
2018-06-20T15:26:30.422Z,29.60
2018-06-20T15:29:10.915Z,29.61
2018-06-20T15:31:50.618Z,29.53
2018-06-20T15:34:30.326Z,29.76
2018-06-20T15:37:11.143Z,29.41
2018-06-20T15:39:45.523Z,29.48
2018-06-20T15:42:19.727Z,29.35
2018-06-20T15:44:54.204Z,28.94
2018-06-20T15:47:28.595Z,28.94
2018-06-20T15:50:02.998Z,28.93
2018-06-20T15:52:37.391Z,28.62
2018-06-20T15:55:11.871Z,28.73
2018-06-20T15:57:46.148Z,28.30
2018-06-20T16:00:20.489Z,28.62
2018-06-20T16:02:54.875Z,28.69
2018-06-20T16:05:29.192Z,28.53
2018-06-20T16:08:03.587Z,28.21
2018-06-20T16:10:37.967Z,28.26
2018-06-20T16:13:12.307Z,28.46
2018-06-20T16:15:46.704Z,28.06
2018-06-20T16:18:21.091Z,28.23
2018-06-20T16:21:01.025Z,28.31
2018-06-20T16:24:43.518Z,28.01
2018-06-20T16:27:23.305Z,27.94
2018-06-20T16:30:03.027Z,27.91
2018-06-20T16:32:37.544Z,27.63
2018-06-20T16:35:11.951Z,27.65
2018-06-20T16:37:46.352Z,27.61
2018-06-20T16:40:20.763Z,27.66
2018-06-20T16:42:55.227Z,27.69
2018-06-20T16:45:29.612Z,27.42
2018-06-20T16:48:03.883Z,27.49
2018-06-20T16:50:38.271Z,27.41
2018-06-20T16:53:12.779Z,27.27
2018-06-20T16:55:47.064Z,27.28
2018-06-20T16:58:21.387Z,27.39
2018-06-20T17:00:59.846Z,27.36
2018-06-20T17:03:34.204Z,27.18
2018-06-20T17:06:08.612Z,27.08
2018-06-20T17:08:42.800Z,27.16
2018-06-20T17:11:17.035Z,27.00
2018-06-20T17:13:56.503Z,27.00
2018-06-20T17:16:36.233Z,26.81
2018-06-20T17:19:16.168Z,26.84
2018-06-20T17:21:55.897Z,26.89
2018-06-20T17:24:35.782Z,26.90
2018-06-20T17:27:10.140Z,26.82
2018-06-20T17:29:44.496Z,26.58
2018-06-20T17:32:18.789Z,26.60
2018-06-20T17:34:53.088Z,26.66
2018-06-20T17:37:27.421Z,26.58
2018-06-20T17:40:01.792Z,26.53
2018-06-20T17:42:36.251Z,26.62
2018-06-20T17:45:10.502Z,26.51
2018-06-20T17:47:44.732Z,26.47
2018-06-20T17:50:19.043Z,26.54
2018-06-20T17:52:53.443Z,26.44
2018-06-20T17:55:27.600Z,26.39
2018-06-20T17:58:01.924Z,26.41
2018-06-20T18:00:41.739Z,26.29
2018-06-20T18:03:16.073Z,26.18
2018-06-20T18:05:55.911Z,26.17
2018-06-20T18:08:35.705Z,26.05
2018-06-20T18:11:15.828Z,26.06
2018-06-20T18:13:55.536Z,25.85
2018-06-20T18:16:35.439Z,25.88
2018-06-20T18:19:09.771Z,25.84
2018-06-20T18:21:44.065Z,25.78
2018-06-20T18:24:18.379Z,25.62
2018-06-20T18:26:52.787Z,25.60
2018-06-20T18:29:27.015Z,25.53
2018-06-20T18:32:01.303Z,25.38
2018-06-20T18:34:40.667Z,25.41
2018-06-20T18:37:19.794Z,25.46
2018-06-20T18:40:09.516Z,25.57
2018-06-20T18:42:44.071Z,25.61
2018-06-20T18:45:18.424Z,25.62
2018-06-20T18:47:58.179Z,25.71
2018-06-20T18:50:32.448Z,25.70
2018-06-20T18:53:06.680Z,25.74
2018-06-20T18:55:41.083Z,25.67
2018-06-20T18:58:20.774Z,25.66
2018-06-20T19:01:00.627Z,25.60
2018-06-20T19:03:40.453Z,25.65
2018-06-20T19:06:20.458Z,25.47
2018-06-20T19:08:57.591Z,25.41
2018-06-20T19:11:31.887Z,25.22
2018-06-20T19:14:06.231Z,25.21
2018-06-20T19:16:40.529Z,25.18
2018-06-20T19:19:14.743Z,25.12
2018-06-20T19:21:49.175Z,24.99
2018-06-20T19:24:23.586Z,24.83
2018-06-20T19:26:58.000Z,24.71
2018-06-20T19:29:32.431Z,24.62
2018-06-20T19:32:06.969Z,24.61
2018-06-20T19:34:41.393Z,24.50
2018-06-20T19:37:15.744Z,24.44
2018-06-20T19:39:52.324Z,24.36
2018-06-20T19:42:26.777Z,24.29
2018-06-20T19:45:01.047Z,24.25
2018-06-20T19:47:35.459Z,24.12
2018-06-20T19:50:09.743Z,23.94
2018-06-20T19:52:44.136Z,23.84
2018-06-20T19:55:18.535Z,23.75
2018-06-20T19:57:52.915Z,23.69
2018-06-20T20:00:27.227Z,23.57
2018-06-20T20:03:01.599Z,23.48
2018-06-20T20:05:36.004Z,23.48
2018-06-20T20:08:10.395Z,23.44
2018-06-20T20:10:44.807Z,23.43
2018-06-20T20:13:19.031Z,23.36
2018-06-20T20:15:53.344Z,23.26
2018-06-20T20:18:27.679Z,23.18
2018-06-20T20:21:01.987Z,23.10
2018-06-20T20:23:36.306Z,23.00
2018-06-20T20:26:10.518Z,22.91
2018-06-20T20:28:44.775Z,22.87
2018-06-20T20:31:19.199Z,22.76
2018-06-20T20:33:53.718Z,22.64
2018-06-20T20:36:27.979Z,22.55
2018-06-20T20:39:02.348Z,22.48
2018-06-20T20:41:36.691Z,22.42
2018-06-20T20:44:10.959Z,22.34
2018-06-20T20:46:45.423Z,22.33
2018-06-20T20:49:19.685Z,22.22
2018-06-20T20:51:54.023Z,22.18
2018-06-20T20:54:28.410Z,22.16
2018-06-20T20:57:02.847Z,22.12
2018-06-20T20:59:37.172Z,22.07
2018-06-20T21:02:11.478Z,22.00
2018-06-20T21:04:45.903Z,21.94
2018-06-20T21:07:20.322Z,21.89
2018-06-20T21:09:54.683Z,21.86
2018-06-20T21:12:29.096Z,21.88
2018-06-20T21:15:03.531Z,21.88
2018-06-20T21:17:38.031Z,21.86
2018-06-20T21:20:12.452Z,21.79
2018-06-20T21:22:46.712Z,21.71
2018-06-20T21:25:21.145Z,21.72
2018-06-20T21:27:55.534Z,21.76
2018-06-20T21:30:30.004Z,21.85
2018-06-20T21:33:04.361Z,21.80
2018-06-20T21:35:38.757Z,21.68
2018-06-20T21:38:13.119Z,21.55
2018-06-20T21:40:47.360Z,21.42
2018-06-20T21:43:21.800Z,21.41
2018-06-20T21:45:56.195Z,21.34
2018-06-20T21:48:30.580Z,21.28
2018-06-20T21:51:04.963Z,21.23
2018-06-20T21:53:39.152Z,21.28
2018-06-20T21:56:13.523Z,21.25
2018-06-20T21:58:47.799Z,21.13
2018-06-20T22:01:22.081Z,21.05
2018-06-20T22:03:56.475Z,21.01
2018-06-20T22:06:30.884Z,20.96
2018-06-20T22:09:07.766Z,20.96
2018-06-20T22:11:42.212Z,20.96
2018-06-20T22:14:16.697Z,20.95
2018-06-20T22:17:10.705Z,20.92
2018-06-20T22:19:45.252Z,20.84
2018-06-20T22:22:19.724Z,20.72
2018-06-20T22:24:54.207Z,20.62
2018-06-20T22:27:28.753Z,20.64
2018-06-20T22:30:03.220Z,20.52
2018-06-20T22:32:37.785Z,20.41
2018-06-20T22:35:13.193Z,20.48
2018-06-20T22:37:47.857Z,20.32
2018-06-20T22:40:22.480Z,20.35
2018-06-20T22:42:57.002Z,20.26
2018-06-20T22:45:31.392Z,20.20
2018-06-20T22:48:05.911Z,20.21
2018-06-20T22:50:40.344Z,20.24
2018-06-20T22:53:14.837Z,20.18
2018-06-20T22:55:49.440Z,20.15
2018-06-20T22:58:23.976Z,20.11
2018-06-20T23:00:58.858Z,20.03
2018-06-20T23:09:50.300Z,19.93
2018-06-20T23:12:25.891Z,19.93
2018-06-20T23:15:00.448Z,19.95
2018-06-20T23:17:35.044Z,19.97
2018-06-20T23:20:09.757Z,19.97
2018-06-20T23:22:44.416Z,19.92
2018-06-20T23:25:18.929Z,19.88
2018-06-20T23:27:53.332Z,19.91
2018-06-20T23:30:27.764Z,19.97
2018-06-20T23:33:02.309Z,20.06
2018-06-20T23:35:36.817Z,20.16
2018-06-20T23:38:11.201Z,20.14
2018-06-20T23:40:45.708Z,20.18
2018-06-20T23:43:20.324Z,20.10
2018-06-20T23:45:54.841Z,19.98
2018-06-20T23:48:29.331Z,20.01
2018-06-20T23:51:03.745Z,20.01
2018-06-20T23:53:38.336Z,20.10
2018-06-20T23:56:12.833Z,20.15
2018-06-20T23:58:47.343Z,20.18
